Sumihiro Maru — JD3168 — position and weather

sailwx.info

Track history (hours):
 
Tides and Currents Weather Stations Pressure Air Temp Water Temp Dewpoint Dewpoint Depression Visibility Wind Speed Wind Dir Waves Ship Positions

Sumihiro Maru

Last reported at 2018-Jun-16 04:51 UTC. Time now 2018-Jun-19 20:00 UTC.
Position N 34°25' E 134°22'.

Length 63 m; draft 3.2 m.

Type: Cargo ship. MMSI: 431002283.

Date/timePositionNaut miles runAvg speedWind from/ knotsBaromVisibWave heightAir tempDewpointWater temp
2018-Jun-16 04:51N 34°25' E 134°22'410.8
2018-Jun-16 04:26N 34°27' E 134°27'511.3
2018-Jun-16 04:00N 34°28' E 134°33'611.4
2018-Jun-16 03:30N 34°31' E 134°39'612.2
2018-Jun-16 03:00N 34°33' E 134°46'612.3
2018-Jun-16 02:30N 34°35' E 134°53'612.4
2018-Jun-16 02:00N 34°37' E 134°60'611.9
2018-Jun-16 01:31N 34°36' E 135°07'611.5
2018-Jun-16 01:01N 34°35' E 135°13'611.0
2018-Jun-16 00:30N 34°34' E 135°20'5 8.8
2018-Jun-15 23:59N 34°33' E 135°25'0 0.0
2018-Jun-15 22:31N 34°33' E 135°25'0 0.0
2018-Jun-15 22:30N 34°33' E 135°25'2 3.9
2018-Jun-15 22:00N 34°34' E 135°23'0 0.7
2018-Jun-15 21:30N 34°34' E 135°23'1 3.0
2018-Jun-15 21:00N 34°35' E 135°24'3 5.7
2018-Jun-15 20:30N 34°34' E 135°27'0 0.0
2018-Jun-15 19:44N 34°34' E 135°27'0 0.0
2018-Jun-15 19:08N 34°34' E 135°27'0 0.0
2018-Jun-15 18:56N 34°34' E 135°27'0 0.0
2018-Jun-15 18:26N 34°34' E 135°27'0 0.0
2018-Jun-15 17:44N 34°34' E 135°27'0 0.0
2018-Jun-15 16:56N 34°34' E 135°27'0 0.0
2018-Jun-15 16:20N 34°34' E 135°27'0 0.0
2018-Jun-15 14:32N 34°34' E 135°27'0 0.0
2018-Jun-15 14:20N 34°34' E 135°27'0 0.0
2018-Jun-15 13:50N 34°34' E 135°27'0 0.0
2018-Jun-15 13:08N 34°34' E 135°27'0 0.0
2018-Jun-15 12:56N 34°34' E 135°27'0 0.0
2018-Jun-15 12:26N 34°34' E 135°27'0 0.0
2018-Jun-14 21:53N 34°34' E 135°27'2 5.2
2018-Jun-14 21:30N 34°36' E 135°25'5 8.9
2018-Jun-14 21:00N 34°34' E 135°20'510.9
2018-Jun-14 20:30N 34°30' E 135°16'510.8
2018-Jun-14 20:00N 34°26' E 135°11'510.1
2018-Jun-14 19:30N 34°22' E 135°07'510.1
2018-Jun-14 19:00N 34°18' E 135°04'5 9.7
2018-Jun-14 18:30N 34°13' E 135°03'611.1
2018-Jun-14 17:59N 34°07' E 135°02'511.0
2018-Jun-14 17:30N 34°02' E 135°02'  
2018-Jun-11 19:54N 33°51' E 135°04'4 9.7
2018-Jun-11 19:30N 33°53' E 135°00'5 9.8
2018-Jun-11 19:00N 33°56' E 134°55'7 9.9
2018-Jun-11 18:20N 33°59' E 134°48'4 9.6
2018-Jun-11 17:53N 34°01' E 134°44'6 4.0
2018-Jun-11 16:30N 34°04' E 134°38'610.8
2018-Jun-11 15:55N 34°10' E 134°41'1110.8
2018-Jun-11 14:54N 34°18' E 134°31'410.5
2018-Jun-11 14:30N 34°19' E 134°26'  
2018-Jun-09 07:20N 34°25' E 134°21'411.9
2018-Jun-09 07:00N 34°27' E 134°25'611.9
2018-Jun-09 06:29N 34°29' E 134°32'612.1
2018-Jun-09 05:58N 34°31' E 134°39'612.0
2018-Jun-09 05:29N 34°33' E 134°46'612.2
2018-Jun-09 05:01N 34°35' E 134°53'611.7
2018-Jun-09 04:30N 34°37' E 134°59'5 9.6
2018-Jun-09 04:00N 34°36' E 135°05'611.4
2018-Jun-09 03:30N 34°35' E 135°12'712.2
2018-Jun-09 02:57N 34°34' E 135°20'5 9.8
2018-Jun-09 02:28N 34°31' E 135°24'1 0.2
2018-Jun-08 23:47N 34°31' E 135°24'2 5.9
2018-Jun-08 23:31N 34°32' E 135°23'1 1.0
2018-Jun-08 22:11N 34°31' E 135°24'0 0.0
2018-Jun-08 07:34N 34°31' E 135°24'0 3.0
2018-Jun-08 07:30N 34°31' E 135°24'1 0.9
2018-Jun-08 06:43N 34°32' E 135°23'1 4.1
2018-Jun-08 06:29N 34°32' E 135°22'0 0.1
2018-Jun-08 06:00N 34°32' E 135°22'5 8.8
2018-Jun-08 05:30N 34°30' E 135°17'510.1
2018-Jun-08 05:00N 34°27' E 135°12'510.3
2018-Jun-08 04:30N 34°23' E 135°08'510.9
2018-Jun-08 04:00N 34°19' E 135°04'611.0
2018-Jun-08 03:30N 34°13' E 135°03'810.8
2018-Jun-08 02:44N 34°05' E 135°02'210.7
2018-Jun-08 02:30N 34°03' E 135°02'  
Track history (hours):
 
Tides and Currents Weather Stations Pressure Air Temp Water Temp Dewpoint Dewpoint Depression Visibility Wind Speed Wind Dir Waves Ship Positions

Sumihiro Maru

Last reported at 2018-Jun-16 04:51 UTC. Time now 2018-Jun-19 20:00 UTC.
Position N 34°25' E 134°22'.

Length 63 m; draft 3.2 m.

Type: Cargo ship. MMSI: 431002283.

Date/timePositionNaut miles runAvg speedWind from/ knotsBaromVisibWave heightAir tempDewpointWater temp
2018-Jun-16 04:51N 34°25' E 134°22'410.8
2018-Jun-16 04:26N 34°27' E 134°27'511.3
2018-Jun-16 04:00N 34°28' E 134°33'611.4
2018-Jun-16 03:30N 34°31' E 134°39'612.2
2018-Jun-16 03:00N 34°33' E 134°46'612.3
2018-Jun-16 02:30N 34°35' E 134°53'612.4
2018-Jun-16 02:00N 34°37' E 134°60'611.9
2018-Jun-16 01:31N 34°36' E 135°07'611.5
2018-Jun-16 01:01N 34°35' E 135°13'611.0
2018-Jun-16 00:30N 34°34' E 135°20'5 8.8
2018-Jun-15 23:59N 34°33' E 135°25'0 0.0
2018-Jun-15 22:31N 34°33' E 135°25'0 0.0
2018-Jun-15 22:30N 34°33' E 135°25'2 3.9
2018-Jun-15 22:00N 34°34' E 135°23'0 0.7
2018-Jun-15 21:30N 34°34' E 135°23'1 3.0
2018-Jun-15 21:00N 34°35' E 135°24'3 5.7
2018-Jun-15 20:30N 34°34' E 135°27'0 0.0
2018-Jun-15 19:44N 34°34' E 135°27'0 0.0
2018-Jun-15 19:08N 34°34' E 135°27'0 0.0
2018-Jun-15 18:56N 34°34' E 135°27'0 0.0
2018-Jun-15 18:26N 34°34' E 135°27'0 0.0
2018-Jun-15 17:44N 34°34' E 135°27'0 0.0
2018-Jun-15 16:56N 34°34' E 135°27'0 0.0
2018-Jun-15 16:20N 34°34' E 135°27'0 0.0
2018-Jun-15 14:32N 34°34' E 135°27'0 0.0
2018-Jun-15 14:20N 34°34' E 135°27'0 0.0
2018-Jun-15 13:50N 34°34' E 135°27'0 0.0
2018-Jun-15 13:08N 34°34' E 135°27'0 0.0
2018-Jun-15 12:56N 34°34' E 135°27'0 0.0
2018-Jun-15 12:26N 34°34' E 135°27'0 0.0
2018-Jun-14 21:53N 34°34' E 135°27'2 5.2
2018-Jun-14 21:30N 34°36' E 135°25'5 8.9
2018-Jun-14 21:00N 34°34' E 135°20'510.9
2018-Jun-14 20:30N 34°30' E 135°16'510.8
2018-Jun-14 20:00N 34°26' E 135°11'510.1
2018-Jun-14 19:30N 34°22' E 135°07'510.1
2018-Jun-14 19:00N 34°18' E 135°04'5 9.7
2018-Jun-14 18:30N 34°13' E 135°03'611.1
2018-Jun-14 17:59N 34°07' E 135°02'511.0
2018-Jun-14 17:30N 34°02' E 135°02'  
2018-Jun-11 19:54N 33°51' E 135°04'4 9.7
2018-Jun-11 19:30N 33°53' E 135°00'5 9.8
2018-Jun-11 19:00N 33°56' E 134°55'7 9.9
2018-Jun-11 18:20N 33°59' E 134°48'4 9.6
2018-Jun-11 17:53N 34°01' E 134°44'6 4.0
2018-Jun-11 16:30N 34°04' E 134°38'610.8
2018-Jun-11 15:55N 34°10' E 134°41'1110.8
2018-Jun-11 14:54N 34°18' E 134°31'410.5
2018-Jun-11 14:30N 34°19' E 134°26'  
2018-Jun-09 07:20N 34°25' E 134°21'411.9
2018-Jun-09 07:00N 34°27' E 134°25'611.9
2018-Jun-09 06:29N 34°29' E 134°32'612.1
2018-Jun-09 05:58N 34°31' E 134°39'612.0
2018-Jun-09 05:29N 34°33' E 134°46'612.2
2018-Jun-09 05:01N 34°35' E 134°53'611.7
2018-Jun-09 04:30N 34°37' E 134°59'5 9.6
2018-Jun-09 04:00N 34°36' E 135°05'611.4
2018-Jun-09 03:30N 34°35' E 135°12'712.2
2018-Jun-09 02:57N 34°34' E 135°20'5 9.8
2018-Jun-09 02:28N 34°31' E 135°24'1 0.2
2018-Jun-08 23:47N 34°31' E 135°24'2 5.9
2018-Jun-08 23:31N 34°32' E 135°23'1 1.0
2018-Jun-08 22:11N 34°31' E 135°24'0 0.0
2018-Jun-08 07:34N 34°31' E 135°24'0 3.0
2018-Jun-08 07:30N 34°31' E 135°24'1 0.9
2018-Jun-08 06:43N 34°32' E 135°23'1 4.1
2018-Jun-08 06:29N 34°32' E 135°22'0 0.1
2018-Jun-08 06:00N 34°32' E 135°22'5 8.8
2018-Jun-08 05:30N 34°30' E 135°17'510.1
2018-Jun-08 05:00N 34°27' E 135°12'510.3
2018-Jun-08 04:30N 34°23' E 135°08'510.9
2018-Jun-08 04:00N 34°19' E 135°04'611.0
2018-Jun-08 03:30N 34°13' E 135°03'810.8
2018-Jun-08 02:44N 34°05' E 135°02'210.7
2018-Jun-08 02:30N 34°03' E 135°02'  

Dump ship's entire track history